sensor_id;sensor_type;location;lat;lon;timestamp;P1;durP1;ratioP1;P2;durP2;ratioP2
77586;SDS011;66744;49.716;17.158;2023-05-17T00:01:30;2.92;;;1.58;;
77586;SDS011;66744;49.716;17.158;2023-05-17T00:04:31;2.08;;;1.60;;
77586;SDS011;66744;49.716;17.158;2023-05-17T00:07:33;1.55;;;1.08;;
77586;SDS011;66744;49.716;17.158;2023-05-17T00:10:34;2.90;;;1.48;;
77586;SDS011;66744;49.716;17.158;2023-05-17T00:13:36;1.55;;;1.38;;
77586;SDS011;66744;49.716;17.158;2023-05-17T00:16:38;3.17;;;1.52;;
77586;SDS011;66744;49.716;17.158;2023-05-17T00:19:39;1.80;;;1.55;;
77586;SDS011;66744;49.716;17.158;2023-05-17T00:22:40;2.13;;;1.92;;
77586;SDS011;66744;49.716;17.158;2023-05-17T00:25:43;1.90;;;1.38;;
77586;SDS011;66744;49.716;17.158;2023-05-17T00:28:44;1.30;;;1.17;;
77586;SDS011;66744;49.716;17.158;2023-05-17T00:31:48;1.48;;;1.33;;
77586;SDS011;66744;49.716;17.158;2023-05-17T00:34:49;3.25;;;1.55;;
77586;SDS011;66744;49.716;17.158;2023-05-17T00:37:50;2.97;;;1.60;;
77586;SDS011;66744;49.716;17.158;2023-05-17T00:40:51;2.00;;;1.75;;
77586;SDS011;66744;49.716;17.158;2023-05-17T00:43:53;2.08;;;1.50;;
77586;SDS011;66744;49.716;17.158;2023-05-17T00:46:55;3.72;;;1.65;;
77586;SDS011;66744;49.716;17.158;2023-05-17T00:49:57;2.75;;;2.08;;
77586;SDS011;66744;49.716;17.158;2023-05-17T00:52:58;4.18;;;2.42;;
77586;SDS011;66744;49.716;17.158;2023-05-17T00:56:00;3.05;;;2.15;;
77586;SDS011;66744;49.716;17.158;2023-05-17T00:59:03;3.53;;;2.92;;
77586;SDS011;66744;49.716;17.158;2023-05-17T01:02:05;3.55;;;2.53;;
77586;SDS011;66744;49.716;17.158;2023-05-17T01:05:07;2.78;;;2.15;;
77586;SDS011;66744;49.716;17.158;2023-05-17T01:08:09;2.83;;;2.50;;
77586;SDS011;66744;49.716;17.158;2023-05-17T01:14:50;3.70;;;1.60;;
77586;SDS011;66744;49.716;17.158;2023-05-17T01:25:10;2.97;;;1.30;;
77586;SDS011;66744;49.716;17.158;2023-05-17T01:28:23;1.35;;;1.13;;
77586;SDS011;66744;49.716;17.158;2023-05-17T01:31:26;2.97;;;1.63;;
77586;SDS011;66744;49.716;17.158;2023-05-17T01:34:30;2.20;;;1.55;;
77586;SDS011;66744;49.716;17.158;2023-05-17T01:37:31;1.08;;;0.93;;
77586;SDS011;66744;49.716;17.158;2023-05-17T01:40:33;1.88;;;0.77;;
77586;SDS011;66744;49.716;17.158;2023-05-17T01:46:52;1.73;;;1.13;;
77586;SDS011;66744;49.716;17.158;2023-05-17T01:50:00;1.05;;;0.70;;
77586;SDS011;66744;49.716;17.158;2023-05-17T01:56:43;1.20;;;0.85;;
77586;SDS011;66744;49.716;17.158;2023-05-17T01:59:48;1.40;;;1.20;;
77586;SDS011;66744;49.716;17.158;2023-05-17T02:02:51;2.13;;;1.13;;
77586;SDS011;66744;49.716;17.158;2023-05-17T02:05:54;2.63;;;1.35;;
77586;SDS011;66744;49.716;17.158;2023-05-17T02:08:56;1.38;;;1.27;;
77586;SDS011;66744;49.716;17.158;2023-05-17T02:11:58;2.60;;;1.08;;
77586;SDS011;66744;49.716;17.158;2023-05-17T02:14:59;3.00;;;1.20;;
77586;SDS011;66744;49.716;17.158;2023-05-17T02:18:00;1.73;;;1.63;;
77586;SDS011;66744;49.716;17.158;2023-05-17T02:21:02;3.60;;;1.52;;
77586;SDS011;66744;49.716;17.158;2023-05-17T02:24:04;2.00;;;1.42;;
77586;SDS011;66744;49.716;17.158;2023-05-17T02:27:05;2.28;;;1.30;;
77586;SDS011;66744;49.716;17.158;2023-05-17T02:30:07;4.07;;;1.95;;
77586;SDS011;66744;49.716;17.158;2023-05-17T02:33:08;4.20;;;1.33;;
77586;SDS011;66744;49.716;17.158;2023-05-17T02:36:10;1.63;;;1.25;;
77586;SDS011;66744;49.716;17.158;2023-05-17T02:39:12;1.90;;;1.40;;
77586;SDS011;66744;49.716;17.158;2023-05-17T02:42:13;2.30;;;1.38;;
77586;SDS011;66744;49.716;17.158;2023-05-17T02:45:15;2.13;;;1.70;;
77586;SDS011;66744;49.716;17.158;2023-05-17T02:48:16;3.10;;;1.52;;
77586;SDS011;66744;49.716;17.158;2023-05-17T02:51:18;2.58;;;1.75;;
77586;SDS011;66744;49.716;17.158;2023-05-17T02:54:19;8.77;;;2.10;;
77586;SDS011;66744;49.716;17.158;2023-05-17T02:57:21;2.72;;;1.42;;
77586;SDS011;66744;49.716;17.158;2023-05-17T03:00:22;3.35;;;1.55;;
77586;SDS011;66744;49.716;17.158;2023-05-17T03:03:24;3.28;;;1.88;;
77586;SDS011;66744;49.716;17.158;2023-05-17T03:06:26;2.53;;;1.95;;
77586;SDS011;66744;49.716;17.158;2023-05-17T03:09:27;2.30;;;1.77;;
77586;SDS011;66744;49.716;17.158;2023-05-17T03:12:31;2.45;;;1.75;;
77586;SDS011;66744;49.716;17.158;2023-05-17T03:15:32;3.40;;;1.50;;
77586;SDS011;66744;49.716;17.158;2023-05-17T03:18:33;4.75;;;1.60;;
77586;SDS011;66744;49.716;17.158;2023-05-17T03:21:36;3.17;;;1.67;;
77586;SDS011;66744;49.716;17.158;2023-05-17T03:24:38;3.42;;;1.70;;
77586;SDS011;66744;49.716;17.158;2023-05-17T03:27:39;3.10;;;1.73;;
77586;SDS011;66744;49.716;17.158;2023-05-17T03:30:40;3.08;;;1.55;;
77586;SDS011;66744;49.716;17.158;2023-05-17T03:33:46;2.25;;;1.77;;
77586;SDS011;66744;49.716;17.158;2023-05-17T03:36:47;2.75;;;2.17;;
77586;SDS011;66744;49.716;17.158;2023-05-17T03:39:49;2.38;;;1.70;;
77586;SDS011;66744;49.716;17.158;2023-05-17T03:42:50;2.22;;;1.67;;
77586;SDS011;66744;49.716;17.158;2023-05-17T03:45:52;2.78;;;1.98;;
77586;SDS011;66744;49.716;17.158;2023-05-17T03:48:53;3.38;;;1.65;;
77586;SDS011;66744;49.716;17.158;2023-05-17T03:51:55;2.63;;;1.88;;
77586;SDS011;66744;49.716;17.158;2023-05-17T03:54:57;3.05;;;1.65;;
77586;SDS011;66744;49.716;17.158;2023-05-17T03:57:58;3.00;;;1.80;;
77586;SDS011;66744;49.716;17.158;2023-05-17T04:01:00;5.20;;;2.15;;
77586;SDS011;66744;49.716;17.158;2023-05-17T04:04:01;3.28;;;1.52;;
77586;SDS011;66744;49.716;17.158;2023-05-17T04:07:04;2.58;;;1.70;;
77586;SDS011;66744;49.716;17.158;2023-05-17T04:10:06;5.35;;;1.90;;
77586;SDS011;66744;49.716;17.158;2023-05-17T04:13:08;4.25;;;1.90;;
77586;SDS011;66744;49.716;17.158;2023-05-17T04:16:10;3.72;;;2.47;;
77586;SDS011;66744;49.716;17.158;2023-05-17T04:19:14;3.47;;;2.33;;
77586;SDS011;66744;49.716;17.158;2023-05-17T04:22:15;3.85;;;2.20;;
77586;SDS011;66744;49.716;17.158;2023-05-17T04:25:17;4.55;;;2.47;;
77586;SDS011;66744;49.716;17.158;2023-05-17T04:28:19;3.15;;;1.92;;
77586;SDS011;66744;49.716;17.158;2023-05-17T04:31:21;3.53;;;1.90;;
77586;SDS011;66744;49.716;17.158;2023-05-17T04:34:23;3.13;;;2.03;;
77586;SDS011;66744;49.716;17.158;2023-05-17T04:37:26;2.25;;;1.60;;
77586;SDS011;66744;49.716;17.158;2023-05-17T04:40:32;3.55;;;2.53;;
77586;SDS011;66744;49.716;17.158;2023-05-17T04:43:34;2.20;;;1.90;;
77586;SDS011;66744;49.716;17.158;2023-05-17T04:46:39;4.30;;;2.05;;
77586;SDS011;66744;49.716;17.158;2023-05-17T04:49:40;3.95;;;2.38;;
77586;SDS011;66744;49.716;17.158;2023-05-17T04:52:43;6.32;;;2.33;;
77586;SDS011;66744;49.716;17.158;2023-05-17T04:55:46;1.92;;;1.70;;
77586;SDS011;66744;49.716;17.158;2023-05-17T04:58:52;4.50;;;2.08;;
77586;SDS011;66744;49.716;17.158;2023-05-17T05:01:54;4.70;;;2.80;;
77586;SDS011;66744;49.716;17.158;2023-05-17T05:04:56;4.05;;;2.00;;
77586;SDS011;66744;49.716;17.158;2023-05-17T05:07:57;4.93;;;2.05;;
77586;SDS011;66744;49.716;17.158;2023-05-17T05:10:59;2.95;;;2.28;;
77586;SDS011;66744;49.716;17.158;2023-05-17T05:14:00;3.65;;;2.35;;
77586;SDS011;66744;49.716;17.158;2023-05-17T05:17:01;2.80;;;2.38;;
77586;SDS011;66744;49.716;17.158;2023-05-17T05:20:03;10.40;;;2.95;;
77586;SDS011;66744;49.716;17.158;2023-05-17T05:23:05;5.18;;;3.15;;
77586;SDS011;66744;49.716;17.158;2023-05-17T05:26:08;4.53;;;3.03;;
77586;SDS011;66744;49.716;17.158;2023-05-17T05:29:09;4.82;;;3.00;;
77586;SDS011;66744;49.716;17.158;2023-05-17T05:32:10;4.22;;;3.17;;
77586;SDS011;66744;49.716;17.158;2023-05-17T05:35:17;4.68;;;3.58;;
77586;SDS011;66744;49.716;17.158;2023-05-17T05:38:18;6.38;;;3.83;;
77586;SDS011;66744;49.716;17.158;2023-05-17T05:41:20;7.47;;;3.28;;
77586;SDS011;66744;49.716;17.158;2023-05-17T05:44:21;5.38;;;3.25;;
77586;SDS011;66744;49.716;17.158;2023-05-17T05:47:23;5.75;;;3.40;;
77586;SDS011;66744;49.716;17.158;2023-05-17T05:50:24;5.10;;;2.72;;
77586;SDS011;66744;49.716;17.158;2023-05-17T05:53:28;5.75;;;2.75;;
77586;SDS011;66744;49.716;17.158;2023-05-17T05:56:30;5.38;;;3.08;;
77586;SDS011;66744;49.716;17.158;2023-05-17T05:59:32;4.30;;;2.40;;
77586;SDS011;66744;49.716;17.158;2023-05-17T06:02:33;4.43;;;2.42;;
77586;SDS011;66744;49.716;17.158;2023-05-17T06:05:35;3.92;;;2.15;;
77586;SDS011;66744;49.716;17.158;2023-05-17T06:08:37;3.08;;;2.55;;
77586;SDS011;66744;49.716;17.158;2023-05-17T06:11:39;5.07;;;2.15;;
77586;SDS011;66744;49.716;17.158;2023-05-17T06:14:40;2.97;;;1.92;;
77586;SDS011;66744;49.716;17.158;2023-05-17T06:17:41;4.05;;;2.10;;
77586;SDS011;66744;49.716;17.158;2023-05-17T06:20:42;6.82;;;2.50;;
77586;SDS011;66744;49.716;17.158;2023-05-17T06:23:44;6.93;;;2.55;;
77586;SDS011;66744;49.716;17.158;2023-05-17T06:26:45;2.50;;;2.13;;
77586;SDS011;66744;49.716;17.158;2023-05-17T06:29:47;3.00;;;1.70;;
77586;SDS011;66744;49.716;17.158;2023-05-17T06:32:48;4.90;;;2.28;;
77586;SDS011;66744;49.716;17.158;2023-05-17T06:35:49;4.72;;;2.20;;
77586;SDS011;66744;49.716;17.158;2023-05-17T06:38:50;7.30;;;2.53;;
77586;SDS011;66744;49.716;17.158;2023-05-17T06:41:51;4.20;;;2.33;;
77586;SDS011;66744;49.716;17.158;2023-05-17T06:44:52;4.40;;;2.25;;
77586;SDS011;66744;49.716;17.158;2023-05-17T06:47:54;4.00;;;2.03;;
77586;SDS011;66744;49.716;17.158;2023-05-17T06:50:55;2.75;;;2.28;;
77586;SDS011;66744;49.716;17.158;2023-05-17T06:53:56;3.47;;;2.22;;
77586;SDS011;66744;49.716;17.158;2023-05-17T06:56:58;5.60;;;2.58;;
77586;SDS011;66744;49.716;17.158;2023-05-17T07:00:00;3.72;;;2.05;;
77586;SDS011;66744;49.716;17.158;2023-05-17T07:03:03;4.72;;;2.20;;
77586;SDS011;66744;49.716;17.158;2023-05-17T07:06:05;4.80;;;3.08;;
77586;SDS011;66744;49.716;17.158;2023-05-17T07:09:07;5.30;;;2.20;;
77586;SDS011;66744;49.716;17.158;2023-05-17T07:12:08;3.70;;;1.95;;
77586;SDS011;66744;49.716;17.158;2023-05-17T07:15:12;5.88;;;3.45;;
77586;SDS011;66744;49.716;17.158;2023-05-17T07:18:13;4.68;;;2.25;;
77586;SDS011;66744;49.716;17.158;2023-05-17T07:21:16;5.43;;;2.30;;
77586;SDS011;66744;49.716;17.158;2023-05-17T07:24:17;5.50;;;2.20;;
77586;SDS011;66744;49.716;17.158;2023-05-17T07:27:18;3.45;;;1.65;;
77586;SDS011;66744;49.716;17.158;2023-05-17T07:30:55;6.15;;;2.33;;
77586;SDS011;66744;49.716;17.158;2023-05-17T07:33:56;3.03;;;1.35;;
77586;SDS011;66744;49.716;17.158;2023-05-17T07:36:57;6.63;;;2.22;;
77586;SDS011;66744;49.716;17.158;2023-05-17T07:39:58;2.75;;;1.75;;
77586;SDS011;66744;49.716;17.158;2023-05-17T07:43:01;3.13;;;1.67;;
77586;SDS011;66744;49.716;17.158;2023-05-17T07:46:02;5.10;;;2.63;;
77586;SDS011;66744;49.716;17.158;2023-05-17T07:49:04;3.63;;;1.40;;
77586;SDS011;66744;49.716;17.158;2023-05-17T07:52:08;5.10;;;2.13;;
77586;SDS011;66744;49.716;17.158;2023-05-17T07:58:34;2.92;;;2.22;;
77586;SDS011;66744;49.716;17.158;2023-05-17T08:01:36;5.43;;;2.03;;
77586;SDS011;66744;49.716;17.158;2023-05-17T08:04:37;3.75;;;2.10;;
77586;SDS011;66744;49.716;17.158;2023-05-17T08:07:39;4.63;;;2.22;;
77586;SDS011;66744;49.716;17.158;2023-05-17T08:10:40;4.72;;;1.67;;
77586;SDS011;66744;49.716;17.158;2023-05-17T08:13:43;3.22;;;1.73;;
77586;SDS011;66744;49.716;17.158;2023-05-17T08:16:45;4.07;;;1.90;;
77586;SDS011;66744;49.716;17.158;2023-05-17T08:19:48;2.45;;;1.83;;
77586;SDS011;66744;49.716;17.158;2023-05-17T08:22:49;1.98;;;1.77;;
77586;SDS011;66744;49.716;17.158;2023-05-17T08:25:50;3.25;;;1.92;;
77586;SDS011;66744;49.716;17.158;2023-05-17T08:28:51;5.18;;;1.85;;
77586;SDS011;66744;49.716;17.158;2023-05-17T08:31:53;4.20;;;1.85;;
77586;SDS011;66744;49.716;17.158;2023-05-17T08:34:54;4.43;;;1.67;;
77586;SDS011;66744;49.716;17.158;2023-05-17T08:37:56;3.67;;;1.95;;
77586;SDS011;66744;49.716;17.158;2023-05-17T08:40:57;3.65;;;1.63;;
77586;SDS011;66744;49.716;17.158;2023-05-17T08:44:01;5.07;;;1.83;;
77586;SDS011;66744;49.716;17.158;2023-05-17T08:47:03;2.53;;;1.30;;
77586;SDS011;66744;49.716;17.158;2023-05-17T08:50:07;3.90;;;1.60;;
77586;SDS011;66744;49.716;17.158;2023-05-17T08:53:11;3.22;;;1.83;;
77586;SDS011;66744;49.716;17.158;2023-05-17T08:56:14;4.72;;;2.22;;
77586;SDS011;66744;49.716;17.158;2023-05-17T08:59:16;3.80;;;1.55;;
77586;SDS011;66744;49.716;17.158;2023-05-17T09:02:19;3.83;;;1.48;;
77586;SDS011;66744;49.716;17.158;2023-05-17T09:05:20;2.38;;;1.38;;
77586;SDS011;66744;49.716;17.158;2023-05-17T09:08:21;3.30;;;1.73;;
77586;SDS011;66744;49.716;17.158;2023-05-17T09:11:23;4.43;;;1.63;;
77586;SDS011;66744;49.716;17.158;2023-05-17T09:14:33;4.72;;;1.10;;
77586;SDS011;66744;49.716;17.158;2023-05-17T09:17:39;4.43;;;1.25;;
77586;SDS011;66744;49.716;17.158;2023-05-17T09:20:41;2.75;;;1.30;;
77586;SDS011;66744;49.716;17.158;2023-05-17T09:23:54;4.32;;;1.40;;
77586;SDS011;66744;49.716;17.158;2023-05-17T09:27:00;4.10;;;1.33;;
77586;SDS011;66744;49.716;17.158;2023-05-17T09:30:05;2.72;;;1.33;;
77586;SDS011;66744;49.716;17.158;2023-05-17T09:33:13;1.70;;;1.25;;
77586;SDS011;66744;49.716;17.158;2023-05-17T09:36:18;3.72;;;1.25;;
77586;SDS011;66744;49.716;17.158;2023-05-17T09:39:23;3.33;;;1.20;;
77586;SDS011;66744;49.716;17.158;2023-05-17T09:42:28;3.45;;;1.13;;
77586;SDS011;66744;49.716;17.158;2023-05-17T09:45:32;4.47;;;1.13;;
77586;SDS011;66744;49.716;17.158;2023-05-17T09:48:36;1.75;;;1.05;;
77586;SDS011;66744;49.716;17.158;2023-05-17T09:51:39;2.03;;;1.15;;
77586;SDS011;66744;49.716;17.158;2023-05-17T09:54:55;2.42;;;1.17;;
77586;SDS011;66744;49.716;17.158;2023-05-17T09:58:01;2.70;;;1.00;;
77586;SDS011;66744;49.716;17.158;2023-05-17T10:01:04;4.28;;;1.13;;
77586;SDS011;66744;49.716;17.158;2023-05-17T10:04:08;3.78;;;1.23;;
77586;SDS011;66744;49.716;17.158;2023-05-17T10:07:11;3.75;;;1.40;;
77586;SDS011;66744;49.716;17.158;2023-05-17T10:10:14;4.03;;;1.33;;
77586;SDS011;66744;49.716;17.158;2023-05-17T10:13:19;3.40;;;1.40;;
77586;SDS011;66744;49.716;17.158;2023-05-17T10:19:26;4.15;;;1.58;;
77586;SDS011;66744;49.716;17.158;2023-05-17T10:22:28;3.72;;;1.10;;
77586;SDS011;66744;49.716;17.158;2023-05-17T10:25:29;2.25;;;1.13;;
77586;SDS011;66744;49.716;17.158;2023-05-17T10:28:32;2.75;;;1.35;;
77586;SDS011;66744;49.716;17.158;2023-05-17T10:31:34;4.20;;;1.13;;
77586;SDS011;66744;49.716;17.158;2023-05-17T10:34:38;3.15;;;1.40;;
77586;SDS011;66744;49.716;17.158;2023-05-17T10:37:40;3.38;;;1.23;;
77586;SDS011;66744;49.716;17.158;2023-05-17T10:40:43;3.25;;;1.42;;
77586;SDS011;66744;49.716;17.158;2023-05-17T10:43:46;3.67;;;1.48;;
77586;SDS011;66744;49.716;17.158;2023-05-17T10:46:52;2.67;;;1.25;;
77586;SDS011;66744;49.716;17.158;2023-05-17T10:49:55;4.07;;;1.17;;
77586;SDS011;66744;49.716;17.158;2023-05-17T10:52:57;2.38;;;1.33;;
77586;SDS011;66744;49.716;17.158;2023-05-17T10:55:59;3.20;;;1.45;;
77586;SDS011;66744;49.716;17.158;2023-05-17T11:02:22;4.32;;;2.13;;
77586;SDS011;66744;49.716;17.158;2023-05-17T11:05:25;5.18;;;1.60;;
77586;SDS011;66744;49.716;17.158;2023-05-17T11:08:27;2.90;;;1.35;;
77586;SDS011;66744;49.716;17.158;2023-05-17T11:11:28;3.28;;;1.52;;
77586;SDS011;66744;49.716;17.158;2023-05-17T11:17:47;3.20;;;1.70;;
77586;SDS011;66744;49.716;17.158;2023-05-17T11:20:50;2.80;;;1.35;;
77586;SDS011;66744;49.716;17.158;2023-05-17T11:24:08;5.80;;;1.73;;
77586;SDS011;66744;49.716;17.158;2023-05-17T11:27:13;4.10;;;1.77;;
77586;SDS011;66744;49.716;17.158;2023-05-17T11:33:36;5.35;;;2.10;;
77586;SDS011;66744;49.716;17.158;2023-05-17T11:36:48;3.08;;;1.52;;
77586;SDS011;66744;49.716;17.158;2023-05-17T11:40:04;4.35;;;1.98;;
77586;SDS011;66744;49.716;17.158;2023-05-17T11:46:22;4.78;;;2.17;;
77586;SDS011;66744;49.716;17.158;2023-05-17T11:49:24;4.03;;;1.45;;
77586;SDS011;66744;49.716;17.158;2023-05-17T11:52:26;4.30;;;2.55;;
77586;SDS011;66744;49.716;17.158;2023-05-17T11:55:28;5.80;;;2.75;;
77586;SDS011;66744;49.716;17.158;2023-05-17T11:58:29;9.02;;;3.40;;
77586;SDS011;66744;49.716;17.158;2023-05-17T12:01:41;7.00;;;2.22;;
77586;SDS011;66744;49.716;17.158;2023-05-17T12:04:43;4.47;;;2.42;;
77586;SDS011;66744;49.716;17.158;2023-05-17T12:07:44;4.07;;;2.70;;
77586;SDS011;66744;49.716;17.158;2023-05-17T12:10:47;5.57;;;2.63;;
77586;SDS011;66744;49.716;17.158;2023-05-17T12:13:50;4.38;;;1.77;;
77586;SDS011;66744;49.716;17.158;2023-05-17T12:16:52;3.25;;;1.92;;
77586;SDS011;66744;49.716;17.158;2023-05-17T12:20:05;3.20;;;2.33;;
77586;SDS011;66744;49.716;17.158;2023-05-17T12:23:10;3.25;;;2.25;;
77586;SDS011;66744;49.716;17.158;2023-05-17T12:26:12;7.65;;;2.85;;
77586;SDS011;66744;49.716;17.158;2023-05-17T12:29:17;4.70;;;2.60;;
77586;SDS011;66744;49.716;17.158;2023-05-17T12:32:22;6.20;;;3.22;;
77586;SDS011;66744;49.716;17.158;2023-05-17T12:35:24;4.45;;;2.38;;
77586;SDS011;66744;49.716;17.158;2023-05-17T12:38:25;6.85;;;2.58;;
77586;SDS011;66744;49.716;17.158;2023-05-17T12:41:33;6.32;;;2.83;;
77586;SDS011;66744;49.716;17.158;2023-05-17T12:44:35;6.15;;;3.22;;
77586;SDS011;66744;49.716;17.158;2023-05-17T12:47:36;5.95;;;2.95;;
77586;SDS011;66744;49.716;17.158;2023-05-17T12:50:38;7.43;;;3.35;;
77586;SDS011;66744;49.716;17.158;2023-05-17T12:53:49;5.32;;;2.60;;
77586;SDS011;66744;49.716;17.158;2023-05-17T12:56:52;4.97;;;2.45;;
77586;SDS011;66744;49.716;17.158;2023-05-17T12:59:53;5.85;;;2.70;;
77586;SDS011;66744;49.716;17.158;2023-05-17T13:02:54;4.47;;;2.75;;
77586;SDS011;66744;49.716;17.158;2023-05-17T13:05:56;3.92;;;2.55;;
77586;SDS011;66744;49.716;17.158;2023-05-17T13:08:58;4.80;;;2.55;;
77586;SDS011;66744;49.716;17.158;2023-05-17T13:12:01;6.10;;;2.70;;
77586;SDS011;66744;49.716;17.158;2023-05-17T13:15:05;4.22;;;2.22;;
77586;SDS011;66744;49.716;17.158;2023-05-17T13:18:13;5.40;;;2.10;;
77586;SDS011;66744;49.716;17.158;2023-05-17T13:21:16;6.10;;;3.20;;
77586;SDS011;66744;49.716;17.158;2023-05-17T13:24:18;4.80;;;2.55;;
77586;SDS011;66744;49.716;17.158;2023-05-17T13:27:22;21.08;;;11.95;;
77586;SDS011;66744;49.716;17.158;2023-05-17T13:30:23;25.65;;;16.70;;
77586;SDS011;66744;49.716;17.158;2023-05-17T13:33:24;10.50;;;8.35;;
77586;SDS011;66744;49.716;17.158;2023-05-17T13:36:26;4.80;;;3.75;;
77586;SDS011;66744;49.716;17.158;2023-05-17T13:39:27;7.55;;;4.05;;
77586;SDS011;66744;49.716;17.158;2023-05-17T13:42:28;5.30;;;4.40;;
77586;SDS011;66744;49.716;17.158;2023-05-17T13:45:30;4.10;;;2.80;;
77586;SDS011;66744;49.716;17.158;2023-05-17T13:48:31;3.38;;;2.25;;
77586;SDS011;66744;49.716;17.158;2023-05-17T13:51:33;5.22;;;2.47;;
77586;SDS011;66744;49.716;17.158;2023-05-17T13:54:36;4.90;;;3.40;;
77586;SDS011;66744;49.716;17.158;2023-05-17T13:57:48;6.00;;;2.80;;
77586;SDS011;66744;49.716;17.158;2023-05-17T14:00:49;6.47;;;2.50;;
77586;SDS011;66744;49.716;17.158;2023-05-17T14:04:02;5.18;;;2.20;;
77586;SDS011;66744;49.716;17.158;2023-05-17T14:07:04;6.45;;;3.17;;
77586;SDS011;66744;49.716;17.158;2023-05-17T14:10:08;5.47;;;2.97;;
77586;SDS011;66744;49.716;17.158;2023-05-17T14:13:11;6.20;;;2.65;;
77586;SDS011;66744;49.716;17.158;2023-05-17T14:16:14;4.38;;;2.65;;
77586;SDS011;66744;49.716;17.158;2023-05-17T14:19:15;4.57;;;2.53;;
77586;SDS011;66744;49.716;17.158;2023-05-17T14:22:17;6.70;;;2.63;;
77586;SDS011;66744;49.716;17.158;2023-05-17T14:25:18;5.63;;;2.90;;
77586;SDS011;66744;49.716;17.158;2023-05-17T14:28:19;3.40;;;2.58;;
77586;SDS011;66744;49.716;17.158;2023-05-17T14:31:20;6.22;;;3.03;;
77586;SDS011;66744;49.716;17.158;2023-05-17T14:34:22;5.60;;;3.35;;
77586;SDS011;66744;49.716;17.158;2023-05-17T14:37:23;6.80;;;3.85;;
77586;SDS011;66744;49.716;17.158;2023-05-17T14:40:24;5.22;;;3.10;;
77586;SDS011;66744;49.716;17.158;2023-05-17T14:43:27;6.30;;;2.78;;
77586;SDS011;66744;49.716;17.158;2023-05-17T14:46:28;5.40;;;3.28;;
77586;SDS011;66744;49.716;17.158;2023-05-17T14:49:30;3.65;;;2.83;;
77586;SDS011;66744;49.716;17.158;2023-05-17T14:52:32;5.43;;;3.15;;
77586;SDS011;66744;49.716;17.158;2023-05-17T14:55:34;6.95;;;3.78;;
77586;SDS011;66744;49.716;17.158;2023-05-17T14:58:35;6.35;;;4.00;;
77586;SDS011;66744;49.716;17.158;2023-05-17T15:01:38;6.93;;;3.95;;
77586;SDS011;66744;49.716;17.158;2023-05-17T15:04:39;6.32;;;3.33;;
77586;SDS011;66744;49.716;17.158;2023-05-17T15:07:41;6.60;;;3.10;;
77586;SDS011;66744;49.716;17.158;2023-05-17T15:10:44;6.57;;;3.05;;
77586;SDS011;66744;49.716;17.158;2023-05-17T15:13:45;4.57;;;2.95;;
77586;SDS011;66744;49.716;17.158;2023-05-17T15:16:47;5.63;;;3.38;;
77586;SDS011;66744;49.716;17.158;2023-05-17T15:19:49;5.85;;;2.92;;
77586;SDS011;66744;49.716;17.158;2023-05-17T15:22:51;4.97;;;2.95;;
77586;SDS011;66744;49.716;17.158;2023-05-17T15:25:52;5.05;;;3.17;;
77586;SDS011;66744;49.716;17.158;2023-05-17T15:28:55;6.45;;;2.92;;
77586;SDS011;66744;49.716;17.158;2023-05-17T15:31:57;3.22;;;2.58;;
77586;SDS011;66744;49.716;17.158;2023-05-17T15:34:59;5.13;;;2.63;;
77586;SDS011;66744;49.716;17.158;2023-05-17T15:38:10;4.75;;;2.40;;
77586;SDS011;66744;49.716;17.158;2023-05-17T15:41:17;4.25;;;2.38;;
77586;SDS011;66744;49.716;17.158;2023-05-17T15:44:24;3.97;;;2.80;;
77586;SDS011;66744;49.716;17.158;2023-05-17T15:47:27;4.47;;;3.13;;
77586;SDS011;66744;49.716;17.158;2023-05-17T15:50:32;4.35;;;2.97;;
77586;SDS011;66744;49.716;17.158;2023-05-17T15:53:34;3.08;;;2.17;;
77586;SDS011;66744;49.716;17.158;2023-05-17T15:56:38;5.25;;;1.95;;
77586;SDS011;66744;49.716;17.158;2023-05-17T15:59:39;6.30;;;2.75;;
77586;SDS011;66744;49.716;17.158;2023-05-17T16:02:44;4.47;;;2.28;;
77586;SDS011;66744;49.716;17.158;2023-05-17T16:05:46;5.85;;;3.10;;
77586;SDS011;66744;49.716;17.158;2023-05-17T16:08:48;2.97;;;2.30;;
77586;SDS011;66744;49.716;17.158;2023-05-17T16:11:52;4.35;;;1.75;;
77586;SDS011;66744;49.716;17.158;2023-05-17T16:14:53;4.78;;;2.50;;
77586;SDS011;66744;49.716;17.158;2023-05-17T16:17:55;5.20;;;2.30;;
77586;SDS011;66744;49.716;17.158;2023-05-17T16:20:57;5.65;;;3.05;;
77586;SDS011;66744;49.716;17.158;2023-05-17T16:23:59;4.30;;;2.63;;
77586;SDS011;66744;49.716;17.158;2023-05-17T16:27:03;5.75;;;3.33;;
77586;SDS011;66744;49.716;17.158;2023-05-17T16:30:06;6.13;;;3.05;;
77586;SDS011;66744;49.716;17.158;2023-05-17T16:33:08;5.28;;;4.22;;
77586;SDS011;66744;49.716;17.158;2023-05-17T16:36:13;6.00;;;4.43;;
77586;SDS011;66744;49.716;17.158;2023-05-17T16:39:15;6.13;;;3.45;;
77586;SDS011;66744;49.716;17.158;2023-05-17T16:42:17;5.07;;;3.13;;
77586;SDS011;66744;49.716;17.158;2023-05-17T16:45:18;8.75;;;3.58;;
77586;SDS011;66744;49.716;17.158;2023-05-17T16:48:19;7.70;;;3.70;;
77586;SDS011;66744;49.716;17.158;2023-05-17T16:51:21;7.70;;;4.00;;
77586;SDS011;66744;49.716;17.158;2023-05-17T16:54:22;9.77;;;3.88;;
77586;SDS011;66744;49.716;17.158;2023-05-17T16:57:25;8.65;;;4.63;;
77586;SDS011;66744;49.716;17.158;2023-05-17T17:00:27;11.80;;;4.97;;
77586;SDS011;66744;49.716;17.158;2023-05-17T17:03:29;7.22;;;4.32;;
77586;SDS011;66744;49.716;17.158;2023-05-17T17:06:31;9.43;;;4.72;;
77586;SDS011;66744;49.716;17.158;2023-05-17T17:09:34;10.40;;;4.90;;
77586;SDS011;66744;49.716;17.158;2023-05-17T17:12:35;6.80;;;4.28;;
77586;SDS011;66744;49.716;17.158;2023-05-17T17:15:37;7.38;;;4.57;;
77586;SDS011;66744;49.716;17.158;2023-05-17T17:18:46;8.30;;;4.78;;
77586;SDS011;66744;49.716;17.158;2023-05-17T17:21:49;8.68;;;4.57;;
77586;SDS011;66744;49.716;17.158;2023-05-17T17:24:51;6.88;;;4.78;;
77586;SDS011;66744;49.716;17.158;2023-05-17T17:27:53;7.15;;;4.82;;
77586;SDS011;66744;49.716;17.158;2023-05-17T17:30:54;8.38;;;4.07;;
77586;SDS011;66744;49.716;17.158;2023-05-17T17:33:55;9.50;;;4.72;;
77586;SDS011;66744;49.716;17.158;2023-05-17T17:36:57;7.82;;;5.03;;
77586;SDS011;66744;49.716;17.158;2023-05-17T17:39:58;10.60;;;5.55;;
77586;SDS011;66744;49.716;17.158;2023-05-17T17:42:59;8.85;;;4.68;;
77586;SDS011;66744;49.716;17.158;2023-05-17T17:46:01;10.88;;;4.95;;
77586;SDS011;66744;49.716;17.158;2023-05-17T17:49:02;7.50;;;4.05;;
77586;SDS011;66744;49.716;17.158;2023-05-17T17:52:04;9.80;;;5.43;;
77586;SDS011;66744;49.716;17.158;2023-05-17T17:55:05;9.65;;;5.88;;
77586;SDS011;66744;49.716;17.158;2023-05-17T17:58:07;7.55;;;4.78;;
77586;SDS011;66744;49.716;17.158;2023-05-17T18:01:10;8.10;;;4.80;;
77586;SDS011;66744;49.716;17.158;2023-05-17T18:04:13;10.18;;;4.88;;
77586;SDS011;66744;49.716;17.158;2023-05-17T18:07:15;8.05;;;4.30;;
77586;SDS011;66744;49.716;17.158;2023-05-17T18:10:20;7.68;;;4.07;;
77586;SDS011;66744;49.716;17.158;2023-05-17T18:13:22;8.23;;;4.22;;
77586;SDS011;66744;49.716;17.158;2023-05-17T18:16:26;8.07;;;4.40;;
77586;SDS011;66744;49.716;17.158;2023-05-17T18:19:28;7.63;;;3.63;;
77586;SDS011;66744;49.716;17.158;2023-05-17T18:22:29;7.22;;;3.95;;
77586;SDS011;66744;49.716;17.158;2023-05-17T18:25:31;7.18;;;2.80;;
77586;SDS011;66744;49.716;17.158;2023-05-17T18:28:33;5.35;;;3.95;;
77586;SDS011;66744;49.716;17.158;2023-05-17T18:31:37;6.10;;;4.10;;
77586;SDS011;66744;49.716;17.158;2023-05-17T18:34:39;7.20;;;3.33;;
77586;SDS011;66744;49.716;17.158;2023-05-17T18:37:40;8.38;;;4.32;;
77586;SDS011;66744;49.716;17.158;2023-05-17T18:40:43;8.25;;;4.20;;